Time;durP1;ratioP1;P1;durP2;ratioP2;P2;SDS_P1;SDS_P2;PMS_P1;PMS_P2;Temp;Humidity;BMP_temperature;BMP_pressure;BME280_temperature;BME280_humidity;BME280_pressure;Samples;Min_cycle;Max_cycle;Signal;HPM_P1;HPM_P2
2021/09/26 00:00:34;;;;;;;18.17;16.33;;;14.60;99.90;;;15.21;100.00;100308.56;5055410;28;20208;-58
2021/09/26 00:03:03;;;;;;;18.70;16.80;;;14.50;99.90;;;15.23;100.00;100317.28;5055133;28;20202;-59
2021/09/26 00:05:32;;;;;;;18.35;16.58;;;14.50;99.90;;;15.18;100.00;100317.19;5055260;28;20749;-59
2021/09/26 00:08:00;;;;;;;18.80;16.80;;;14.50;99.90;;;15.21;100.00;100314.81;5055460;28;20225;-59
2021/09/26 00:10:28;;;;;;;17.88;16.13;;;14.50;99.90;;;15.24;100.00;100317.03;5055439;28;20233;-59
2021/09/26 00:12:56;;;;;;;18.10;16.40;;;14.50;99.90;;;15.21;100.00;100328.41;5055420;28;20193;-59
2021/09/26 00:15:26;;;;;;;17.38;15.73;;;14.40;99.90;;;15.12;100.00;100319.00;5054964;28;20692;-59
2021/09/26 00:17:54;;;;;;;18.42;16.60;;;14.40;99.90;;;15.06;100.00;100316.44;5054745;28;20218;-59
2021/09/26 00:20:24;;;;;;;18.33;16.45;;;14.40;99.90;;;15.07;100.00;100310.78;5055193;28;20288;-59
2021/09/26 00:22:53;;;;;;;18.17;16.50;;;14.40;99.90;;;15.18;100.00;100319.91;5055322;28;20251;-59
2021/09/26 00:25:22;;;;;;;18.95;16.98;;;14.40;99.90;;;15.30;100.00;100313.34;5055103;28;20285;-59
2021/09/26 00:27:50;;;;;;;18.00;16.30;;;14.40;99.90;;;15.31;100.00;100325.00;5055071;28;20201;-59
2021/09/26 00:30:18;;;;;;;18.55;16.75;;;14.40;99.90;;;15.24;100.00;100324.34;5054968;28;20248;-59
2021/09/26 00:32:47;;;;;;;17.40;15.73;;;14.40;99.90;;;15.12;100.00;100334.47;5054505;28;20220;-59
2021/09/26 00:35:18;;;;;;;17.23;15.52;;;14.40;99.90;;;15.01;100.00;100324.50;5054321;28;20684;-58
2021/09/26 00:37:48;;;;;;;17.38;15.63;;;14.30;99.90;;;14.97;100.00;100315.22;5054627;28;20248;-59
2021/09/26 00:40:16;;;;;;;17.27;15.57;;;14.30;99.90;;;14.93;100.00;100322.19;5054793;28;20197;-60
2021/09/26 00:42:44;;;;;;;17.90;16.20;;;14.20;99.90;;;14.94;100.00;100324.66;5054719;28;20284;-60
2021/09/26 00:45:14;;;;;;;17.35;15.68;;;14.20;99.90;;;14.85;100.00;100322.59;5054549;28;20296;-58
2021/09/26 00:47:42;;;;;;;17.15;15.50;;;14.20;99.90;;;14.78;100.00;100322.75;5053969;28;20728;-60
2021/09/26 00:50:11;;;;;;;17.80;16.05;;;14.20;99.90;;;14.74;100.00;100318.84;5054215;28;20235;-59
2021/09/26 00:52:42;;;;;;;17.85;16.08;;;14.10;99.90;;;14.72;100.00;100312.84;5054406;28;20293;-59
2021/09/26 00:55:12;;;;;;;18.15;16.35;;;14.10;99.90;;;14.75;100.00;100319.69;5054167;28;20285;-59
2021/09/26 00:57:43;;;;;;;18.45;16.52;;;14.00;99.90;;;14.65;100.00;100315.72;5054541;28;20289;-60
2021/09/26 01:00:15;;;;;;;18.60;16.70;;;14.00;99.90;;;14.64;100.00;100322.22;5054511;28;20225;-59
2021/09/26 01:02:43;;;;;;;18.60;16.70;;;14.00;99.90;;;14.58;100.00;100320.44;5053953;28;20544;-58
2021/09/26 01:05:15;;;;;;;18.67;16.73;;;14.00;99.90;;;14.54;100.00;100321.97;5053888;28;20206;-59
2021/09/26 01:07:58;;;;;;;18.60;16.85;;;13.90;99.90;;;14.53;100.00;100323.06;5036749;28;20222;-58
2021/09/26 01:10:40;;;;;;;18.58;16.67;;;13.90;99.90;;;14.80;100.00;100327.91;5034435;28;20210;-59
2021/09/26 01:13:30;;;;;;;18.40;16.60;;;13.90;99.90;;;14.68;100.00;100321.72;5034393;28;20277;-59
2021/09/26 01:16:19;;;;;;;18.23;16.35;;;14.00;99.90;;;14.60;100.00;100328.34;5033537;28;20633;-59
2021/09/26 01:18:55;;;;;;;18.65;16.73;;;13.90;99.90;;;14.49;100.00;100321.88;5034042;28;20187;-60
2021/09/26 01:21:42;;;;;;;18.40;16.50;;;13.90;99.90;;;14.51;100.00;100327.09;5034156;28;20276;-59
2021/09/26 01:24:49;;;;;;;18.77;16.80;;;13.80;99.90;;;14.44;100.00;100320.97;5034145;28;20265;-60
2021/09/26 01:28:02;;;;;;;19.50;17.33;;;13.80;99.90;;;14.44;100.00;100310.94;5033825;28;20193;-59
2021/09/26 01:30:41;;;;;;;17.88;16.17;;;13.80;99.90;;;14.35;100.00;100315.13;5033358;28;20291;-60
2021/09/26 01:33:21;;;;;;;19.40;17.50;;;13.70;99.90;;;14.44;100.00;100315.56;5033716;28;20240;-60
2021/09/26 01:36:07;;;;;;;19.20;17.30;;;13.70;99.90;;;14.49;100.00;100316.47;5033831;28;20200;-59
2021/09/26 01:38:43;;;;;;;18.93;17.00;;;13.70;99.90;;;14.38;100.00;100319.22;5033351;28;20301;-59
2021/09/26 01:41:21;;;;;;;18.97;17.07;;;13.70;99.90;;;14.33;100.00;100321.81;5033524;28;20738;-60
2021/09/26 01:43:52;;;;;;;18.92;17.10;;;13.70;99.90;;;14.31;100.00;100327.50;5033366;28;20597;-59
2021/09/26 01:46:29;;;;;;;19.67;16.48;;;13.70;99.90;;;14.28;100.00;100327.97;5033221;28;20193;-59
2021/09/26 01:49:04;;;;;;;18.40;16.52;;;13.60;99.90;;;14.27;100.00;100323.59;5033254;28;20236;-59
2021/09/26 01:51:36;;;;;;;18.90;16.85;;;13.60;99.90;;;14.29;100.00;100328.81;5033593;28;20190;-59
2021/09/26 01:54:08;;;;;;;18.92;17.02;;;13.60;99.90;;;14.28;100.00;100335.28;5033538;28;20197;-59
2021/09/26 01:56:37;;;;;;;18.95;17.15;;;13.60;99.90;;;14.27;100.00;100329.03;5013711;28;20282;-60
2021/09/26 01:59:07;;;;;;;19.30;17.35;;;13.60;99.90;;;14.24;100.00;100331.38;5013822;28;20298;-60
2021/09/26 02:01:40;;;;;;;18.48;16.60;;;13.50;99.90;;;14.34;100.00;100326.19;5013045;28;20219;-60
2021/09/26 02:04:09;;;;;;;19.15;17.25;;;13.60;99.90;;;14.33;100.00;100327.25;5013638;28;20180;-59
2021/09/26 02:06:38;;;;;;;18.77;16.90;;;13.60;99.90;;;14.43;100.00;100332.88;5013609;28;20203;-59
2021/09/26 02:09:07;;;;;;;18.60;16.77;;;13.60;99.90;;;14.30;100.00;100330.44;5013235;28;20226;-59
2021/09/26 02:11:37;;;;;;;17.80;16.10;;;13.60;99.90;;;14.33;100.00;100340.78;5013520;28;20245;-59
2021/09/26 02:14:07;;;;;;;17.85;16.20;;;13.60;99.90;;;14.24;100.00;100337.59;5013486;28;20183;-60
2021/09/26 02:16:38;;;;;;;18.80;16.90;;;13.50;99.90;;;14.24;100.00;100336.81;5012963;28;20226;-59
2021/09/26 02:19:08;;;;;;;18.50;16.60;;;13.50;99.90;;;14.18;100.00;100332.31;5012977;28;20233;-60
2021/09/26 02:21:37;;;;;;;18.97;17.07;;;13.50;99.90;;;14.21;100.00;100340.78;5013077;28;20239;-59
2021/09/26 02:24:06;;;;;;;18.03;16.07;;;13.50;99.90;;;14.16;100.00;100342.56;5012915;28;20238;-60
2021/09/26 02:26:36;;;;;;;18.23;16.27;;;13.50;99.90;;;14.12;100.00;100336.00;5013366;28;20203;-61
2021/09/26 02:29:05;;;;;;;18.90;17.00;;;13.40;99.90;;;14.08;100.00;100335.66;5013360;28;20183;-59
2021/09/26 02:31:33;;;;;;;19.00;16.97;;;13.40;99.90;;;14.15;100.00;100339.06;5012833;28;20310;-59
2021/09/26 02:34:02;;;;;;;18.45;16.55;;;13.40;99.90;;;14.13;100.00;100343.88;5012811;28;20762;-60
2021/09/26 02:36:30;;;;;;;17.43;15.73;;;13.40;99.90;;;14.25;100.00;100344.72;5013185;28;20203;-59
2021/09/26 02:38:58;;;;;;;18.40;16.53;;;13.40;99.90;;;14.24;100.00;100345.72;5013091;28;20222;-60
2021/09/26 02:41:38;;;;;;;18.37;16.47;;;13.50;99.90;;;14.18;100.00;100335.84;5013135;28;20293;-60
2021/09/26 02:44:17;;;;;;;18.87;16.97;;;13.50;99.90;;;14.14;100.00;100344.72;5013016;28;20313;-60
2021/09/26 02:46:55;;;;;;;18.58;16.67;;;13.40;99.90;;;14.05;100.00;100338.00;5012770;28;20617;-59
2021/09/26 02:49:26;;;;;;;17.77;16.07;;;13.40;99.90;;;13.96;100.00;100344.84;5012561;28;20326;-59
2021/09/26 02:51:54;;;;;;;18.67;16.77;;;13.40;99.90;;;13.96;100.00;100332.13;5013013;28;20183;-58
2021/09/26 02:54:23;;;;;;;19.17;17.17;;;13.30;99.90;;;13.95;100.00;100333.16;5014287;28;20203;-59
2021/09/26 02:56:52;;;;;;;17.77;16.07;;;13.30;99.90;;;13.93;100.00;100342.59;5032680;28;20566;-60
2021/09/26 02:59:21;;;;;;;18.47;16.77;;;13.30;99.90;;;14.00;100.00;100327.88;5032213;28;20692;-59
2021/09/26 03:01:51;;;;;;;18.80;16.87;;;13.30;99.90;;;13.98;100.00;100329.16;5032307;28;20202;-59
2021/09/26 03:04:20;;;;;;;19.07;17.17;;;13.30;99.90;;;14.02;100.00;100327.66;5032485;28;20281;-60
2021/09/26 03:06:50;;;;;;;17.88;16.05;;;13.30;99.90;;;14.01;100.00;100326.81;5032273;28;20554;-60
2021/09/26 03:09:18;;;;;;;19.20;17.23;;;13.30;99.90;;;13.99;100.00;100328.94;5032737;28;20198;-60
2021/09/26 03:11:46;;;;;;;18.20;16.40;;;13.30;99.90;;;14.04;100.00;100325.50;5032343;28;20216;-59
2021/09/26 03:14:14;;;;;;;18.38;16.40;;;13.30;99.90;;;14.09;100.00;100329.16;5032221;28;20643;-59
2021/09/26 03:16:42;;;;;;;17.93;16.13;;;13.30;99.90;;;14.04;100.00;100330.91;5031935;28;20202;-59
2021/09/26 03:19:10;;;;;;;18.05;16.35;;;13.30;99.90;;;13.98;100.00;100323.75;5032367;28;20309;-60
2021/09/26 03:21:38;;;;;;;18.20;16.30;;;13.30;99.90;;;13.95;100.00;100322.31;5032521;28;20297;-59
2021/09/26 03:24:08;;;;;;;18.47;16.53;;;13.30;99.90;;;13.98;100.00;100323.75;5032256;28;20293;-59
2021/09/26 03:26:36;;;;;;;18.20;16.40;;;13.30;99.90;;;13.97;100.00;100309.38;5032611;28;20297;-59
2021/09/26 03:29:04;;;;;;;17.90;16.15;;;13.30;99.90;;;14.05;100.00;100321.75;5032458;28;20201;-60
2021/09/26 03:31:32;;;;;;;16.77;15.13;;;13.30;99.90;;;13.99;100.00;100312.69;5032836;28;20201;-59
2021/09/26 03:34:00;;;;;;;17.60;15.73;;;13.30;99.90;;;14.16;100.00;100308.19;5035841;28;20212;-59
2021/09/26 03:36:28;;;;;;;18.10;16.30;;;13.30;99.90;;;14.15;100.00;100305.72;5036217;28;20288;-60
2021/09/26 03:38:56;;;;;;;17.90;16.10;;;13.30;99.90;;;14.29;100.00;100307.13;5036018;28;20233;-59
2021/09/26 03:41:25;;;;;;;17.00;15.40;;;13.40;99.90;;;14.20;100.00;100306.66;5035978;28;20656;-59
2021/09/26 03:43:53;;;;;;;16.75;15.25;;;13.30;99.90;;;14.17;100.00;100292.75;5036146;28;20255;-60
2021/09/26 03:46:21;;;;;;;17.73;15.97;;;13.40;99.90;;;14.12;100.00;100295.34;5035970;28;20325;-59
2021/09/26 03:48:49;;;;;;;16.80;15.00;;;13.30;99.90;;;14.14;100.00;100298.66;5035528;28;20647;-59
2021/09/26 03:51:17;;;;;;;16.07;14.57;;;13.30;99.90;;;14.08;100.00;100305.00;5035702;28;20206;-58
2021/09/26 03:53:45;;;;;;;15.82;14.32;;;13.30;99.90;;;14.09;100.00;100326.44;5035738;28;20670;-59
2021/09/26 03:56:14;;;;;;;16.83;15.33;;;13.30;99.90;;;14.35;100.00;100320.53;5035514;28;20229;-60
2021/09/26 03:58:43;;;;;;;15.93;14.43;;;13.40;99.90;;;14.18;100.00;100319.59;5035836;28;20260;-60
2021/09/26 04:01:11;;;;;;;16.93;15.33;;;13.30;99.90;;;14.00;100.00;100317.06;5035395;28;20759;-59
2021/09/26 04:03:39;;;;;;;16.73;15.17;;;13.30;99.90;;;13.97;100.00;100314.78;5035549;28;20202;-59
2021/09/26 04:06:10;;;;;;;17.07;15.37;;;13.30;99.90;;;13.96;100.00;100306.91;5035623;28;20198;-59
2021/09/26 04:08:39;;;;;;;16.77;15.05;;;13.20;99.90;;;13.95;100.00;100303.38;5035450;28;20182;-60
2021/09/26 04:11:08;;;;;;;16.73;14.50;;;13.20;99.90;;;13.99;100.00;100298.31;5035433;28;20201;-59
2021/09/26 04:13:36;;;;;;;15.93;14.43;;;13.20;99.90;;;13.91;100.00;100302.22;5031598;28;20201;-59
2021/09/26 04:16:06;;;;;;;16.33;14.73;;;13.10;99.90;;;13.90;100.00;100295.13;5015216;28;20207;-60
2021/09/26 04:18:34;;;;;;;15.83;14.30;;;13.10;99.90;;;13.90;100.00;100291.63;5015494;28;20218;-61
2021/09/26 04:21:02;;;;;;;16.57;14.97;;;13.10;99.90;;;13.98;100.00;100289.38;5015540;28;20268;-59
2021/09/26 04:23:30;;;;;;;16.00;14.50;;;13.10;99.90;;;14.21;100.00;100302.84;5015624;28;20237;-59
2021/09/26 04:25:59;;;;;;;15.63;14.00;;;13.20;99.90;;;14.11;100.00;100296.41;5015632;28;20302;-60
2021/09/26 04:28:27;;;;;;;15.77;14.18;;;13.20;99.90;;;14.11;100.00;100297.22;5015028;28;20278;-60
2021/09/26 04:30:55;;;;;;;15.77;14.27;;;13.20;99.90;;;14.10;100.00;100302.91;5015347;28;20286;-60
2021/09/26 04:33:24;;;;;;;16.03;14.43;;;13.30;99.90;;;14.00;100.00;100291.84;5015166;28;20202;-60
2021/09/26 04:35:53;;;;;;;17.92;15.35;;;13.30;99.90;;;14.01;100.00;100296.19;5014879;28;20213;-59
2021/09/26 04:38:21;;;;;;;16.53;14.93;;;13.20;99.90;;;14.08;100.00;100289.59;5015029;28;20270;-60
2021/09/26 04:40:49;;;;;;;16.38;14.68;;;13.30;99.90;;;14.13;100.00;100289.69;5015205;28;20203;-60
2021/09/26 04:43:17;;;;;;;15.93;14.43;;;13.30;99.90;;;14.21;100.00;100291.19;5014462;28;20309;-60
2021/09/26 04:45:45;;;;;;;15.60;14.00;;;13.40;99.90;;;14.36;100.00;100291.53;5014975;28;20199;-60
2021/09/26 04:48:13;;;;;;;15.57;13.90;;;13.50;99.90;;;14.40;100.00;100281.84;5014851;28;20206;-59
2021/09/26 04:50:43;;;;;;;15.35;13.95;;;13.50;99.90;;;14.52;100.00;100285.34;5014584;28;20198;-59
2021/09/26 04:53:12;;;;;;;16.17;14.68;;;13.60;99.90;;;14.46;100.00;100283.63;5015091;28;20278;-59
2021/09/26 04:55:40;;;;;;;14.50;13.10;;;13.70;99.90;;;14.78;100.00;100283.94;5027145;28;20206;-60
2021/09/26 04:58:10;;;;;;;14.77;13.23;;;13.70;99.90;;;14.76;100.00;100289.63;5034396;28;20205;-60
2021/09/26 05:00:38;;;;;;;13.70;12.48;;;13.80;99.90;;;14.76;100.00;100296.91;5034352;28;20566;-60
2021/09/26 05:03:07;;;;;;;14.25;12.35;;;13.80;99.90;;;14.92;100.00;100286.09;5034350;28;20221;-59
2021/09/26 05:05:35;;;;;;;14.20;12.80;;;13.90;99.90;;;14.97;100.00;100301.66;5034303;28;20206;-60
2021/09/26 05:08:05;;;;;;;13.80;12.60;;;13.90;99.90;;;14.80;100.00;100301.59;5034348;28;20210;-59
2021/09/26 05:10:33;;;;;;;14.10;12.75;;;13.90;99.90;;;14.67;100.00;100296.47;5034098;28;20240;-59
2021/09/26 05:13:01;;;;;;;13.75;12.32;;;13.90;99.90;;;14.61;100.00;100308.31;5033704;28;20202;-60
2021/09/26 05:15:29;;;;;;;14.63;13.18;;;13.90;99.90;;;14.57;100.00;100301.72;5034130;28;20206;-60
2021/09/26 05:17:57;;;;;;;15.20;13.15;;;13.80;99.90;;;14.54;100.00;100294.88;5033892;28;20202;-60
2021/09/26 05:20:25;;;;;;;14.82;13.43;;;13.80;99.90;;;14.57;100.00;100299.00;5033849;28;20316;-59
2021/09/26 05:22:53;;;;;;;13.82;12.43;;;13.70;99.90;;;14.46;100.00;100286.34;5033732;28;20210;-60
2021/09/26 05:25:23;;;;;;;13.73;12.43;;;13.70;99.90;;;14.39;100.00;100286.44;5034175;28;20289;-60
2021/09/26 05:27:51;;;;;;;14.00;12.70;;;13.70;99.90;;;14.50;100.00;100288.31;5033856;28;20284;-59
2021/09/26 05:30:19;;;;;;;13.95;12.75;;;13.70;99.90;;;14.56;100.00;100281.09;5034155;28;20285;-61
2021/09/26 05:32:48;;;;;;;14.27;12.88;;;13.70;99.90;;;14.59;100.00;100292.25;5033900;28;20251;-60
2021/09/26 05:35:16;;;;;;;13.50;12.25;;;13.70;99.90;;;14.71;100.00;100294.94;5033420;28;20724;-60
2021/09/26 05:37:44;;;;;;;13.52;12.32;;;13.80;99.90;;;14.75;100.00;100285.22;5033595;28;20206;-60
2021/09/26 05:40:14;;;;;;;12.30;11.18;;;13.80;99.90;;;14.62;100.00;100274.69;5033554;28;20253;-59
2021/09/26 05:42:43;;;;;;;13.87;12.57;;;13.80;99.90;;;14.79;100.00;100269.31;5033513;28;20297;-59
2021/09/26 05:45:11;;;;;;;13.73;12.53;;;13.90;99.90;;;14.82;100.00;100260.66;5033480;28;20596;-59
2021/09/26 05:47:39;;;;;;;13.25;12.05;;;14.00;99.90;;;14.99;100.00;100269.66;5033540;28;20229;-61
2021/09/26 05:50:09;;;;;;;13.63;12.32;;;14.10;99.90;;;15.25;100.00;100263.59;5033104;28;20349;-59
2021/09/26 05:52:37;;;;;;;13.00;11.80;;;14.20;99.90;;;15.58;100.00;100269.84;5033513;28;20202;-60
2021/09/26 05:55:06;;;;;;;13.57;12.27;;;14.40;99.90;;;15.72;100.00;100287.44;5032567;28;20202;-60
2021/09/26 05:57:35;;;;;;;12.30;11.15;;;14.50;99.90;;;15.69;100.00;100279.75;5033077;28;20245;-60
2021/09/26 06:00:07;;;;;;;12.15;11.07;;;14.60;99.90;;;15.72;100.00;100275.75;5032951;28;20329;-60
2021/09/26 06:02:36;;;;;;;12.05;10.80;;;14.70;99.90;;;15.95;100.00;100277.41;5032769;28;20186;-60
2021/09/26 06:05:07;;;;;;;11.93;10.75;;;14.80;99.90;;;16.10;100.00;100277.63;5033113;28;20209;-60
2021/09/26 06:07:35;;;;;;;11.48;10.38;;;15.00;99.90;;;16.13;100.00;100277.94;5033507;28;20526;-59
2021/09/26 06:10:06;;;;;;;11.32;10.32;;;15.10;99.90;;;16.14;100.00;100278.72;5032961;28;20301;-60
2021/09/26 06:12:35;;;;;;;12.25;11.05;;;15.10;99.90;;;16.16;100.00;100287.47;5032903;28;20273;-59
2021/09/26 06:15:06;;;;;;;12.85;11.55;;;15.20;99.90;;;16.03;100.00;100277.81;5027089;28;20205;-59
2021/09/26 06:17:37;;;;;;;11.65;10.60;;;15.10;99.90;;;16.00;100.00;100278.28;5031599;28;20585;-62
2021/09/26 06:20:07;;;;;;;10.85;9.95;;;15.10;99.90;;;16.00;100.00;100272.84;5032602;28;20249;-62
2021/09/26 06:22:35;;;;;;;11.35;10.25;;;15.10;99.90;;;16.00;100.00;100275.56;5032790;28;20617;-62
2021/09/26 06:25:04;;;;;;;11.55;10.52;;;15.10;99.90;;;16.21;100.00;100271.22;5033025;28;20290;-62
2021/09/26 06:27:32;;;;;;;11.23;10.25;;;15.20;99.90;;;16.23;100.00;100278.06;5032800;28;20234;-61
2021/09/26 06:30:00;;;;;;;12.18;10.07;;;15.20;99.90;;;16.23;100.00;100274.50;5032661;28;20198;-63
2021/09/26 06:32:31;;;;;;;10.75;9.65;;;15.20;99.90;;;16.20;100.00;100278.53;5032744;28;20198;-62
2021/09/26 06:35:00;;;;;;;12.18;10.90;;;15.20;99.90;;;16.36;100.00;100285.00;5032535;28;20187;-63
2021/09/26 06:37:28;;;;;;;11.93;10.75;;;15.30;99.90;;;16.53;100.00;100292.03;5032930;28;20208;-62
2021/09/26 06:39:57;;;;;;;11.40;10.30;;;15.40;99.90;;;16.59;100.00;100282.03;5032707;28;20234;-63
2021/09/26 06:42:25;;;;;;;10.60;9.60;;;15.40;99.90;;;16.51;100.00;100287.91;5032146;28;20237;-61
2021/09/26 06:44:53;;;;;;;11.45;10.35;;;15.50;99.90;;;16.38;100.00;100297.28;5032653;28;20526;-62
2021/09/26 06:47:21;;;;;;;10.55;9.55;;;15.40;99.90;;;16.39;100.00;100290.75;5032234;28;20272;-61
2021/09/26 06:49:54;;;;;;;11.32;9.50;;;15.50;99.90;;;16.39;100.00;100290.75;5032043;28;20746;-62
2021/09/26 06:52:22;;;;;;;10.35;9.40;;;15.40;99.90;;;16.42;100.00;100292.94;5032678;28;20378;-62
2021/09/26 06:54:50;;;;;;;9.57;8.65;;;15.40;99.90;;;16.44;100.00;100288.09;5032503;28;20202;-61
2021/09/26 06:57:18;;;;;;;11.15;9.32;;;15.50;99.90;;;16.51;100.00;100291.47;5032330;28;20202;-62
2021/09/26 06:59:46;;;;;;;9.90;8.90;;;15.50;99.90;;;16.49;100.00;100290.88;5032155;28;20226;-61
2021/09/26 07:02:17;;;;;;;9.93;9.05;;;15.50;99.90;;;16.53;100.00;100293.91;5032341;28;20289;-62
2021/09/26 07:04:46;;;;;;;10.77;9.77;;;15.50;99.90;;;16.75;100.00;100294.72;5032170;28;20533;-62
2021/09/26 07:07:15;;;;;;;9.90;9.00;;;15.70;99.90;;;16.82;100.00;100298.88;5035833;28;20298;-62
2021/09/26 07:09:43;;;;;;;9.85;9.05;;;15.70;99.90;;;17.10;100.00;100297.78;5036479;28;20229;-62
2021/09/26 07:12:11;;;;;;;12.32;9.70;;;15.90;99.90;;;17.40;100.00;100297.22;5036224;28;20652;-61
2021/09/26 07:14:39;;;;;;;9.30;8.40;;;16.10;99.90;;;17.59;100.00;100284.88;5036086;28;20186;-62
2021/09/26 07:17:07;;;;;;;9.55;8.65;;;16.30;99.90;;;17.88;100.00;100297.03;5036046;28;20240;-62
2021/09/26 07:19:36;;;;;;;9.80;8.90;;;16.50;99.90;;;17.70;100.00;100303.75;5036121;28;20292;-62
2021/09/26 07:22:04;;;;;;;9.35;8.45;;;16.60;99.90;;;17.56;100.00;100299.00;5036000;28;20632;-62
2021/09/26 07:24:33;;;;;;;8.77;8.07;;;16.60;99.90;;;17.50;100.00;100306.31;5036329;28;20212;-61
2021/09/26 07:27:01;;;;;;;8.95;8.15;;;16.60;99.90;;;17.44;100.00;100299.16;5036076;28;20380;-61
2021/09/26 07:29:29;;;;;;;9.27;8.30;;;16.60;99.90;;;17.42;100.00;100293.13;5036264;28;20206;-62
2021/09/26 07:31:57;;;;;;;9.60;8.73;;;16.50;99.90;;;17.38;100.00;100296.66;5035954;28;20289;-62
2021/09/26 07:34:25;;;;;;;8.90;8.10;;;16.50;99.90;;;17.36;100.00;100304.25;5035396;28;20222;-62
2021/09/26 07:36:53;;;;;;;9.52;8.57;;;16.50;99.90;;;17.40;100.00;100305.38;5035602;28;20202;-62
2021/09/26 07:39:21;;;;;;;9.90;9.00;;;16.50;99.90;;;17.42;100.00;100301.31;5018225;28;20306;-62
2021/09/26 07:41:51;;;;;;;9.90;8.20;;;16.50;99.90;;;17.44;100.00;100303.78;5015814;28;20233;-62
2021/09/26 07:44:19;;;;;;;9.48;8.57;;;16.50;99.90;;;17.42;100.00;100305.97;5023613;28;20226;-63
2021/09/26 07:46:47;;;;;;;9.15;8.25;;;16.50;99.90;;;17.56;100.00;100315.34;5027513;28;20226;-62
2021/09/26 07:49:16;;;;;;;10.35;8.15;;;16.60;99.90;;;17.64;100.00;100312.16;5023572;28;20316;-64
2021/09/26 07:51:45;;;;;;;7.25;6.55;;;16.70;99.90;;;17.67;100.00;100314.34;5026652;28;20274;-62
2021/09/26 07:54:15;;;;;;;10.07;8.50;;;16.70;99.90;;;17.84;100.00;100313.09;5025348;28;20714;-62
2021/09/26 07:56:44;;;;;;;7.80;7.00;;;16.80;99.90;;;17.95;100.00;100309.34;5020985;28;20190;-63
2021/09/26 07:59:13;;;;;;;10.25;9.15;;;16.90;99.90;;;18.06;100.00;100316.47;5015911;28;20278;-63
2021/09/26 08:01:41;;;;;;;9.85;8.95;;;17.00;99.90;;;18.49;100.00;100309.06;5017319;28;20263;-62
2021/09/26 08:04:09;;;;;;;8.70;7.90;;;17.20;99.90;;;18.66;100.00;100301.47;5015627;28;20209;-64
2021/09/26 08:06:37;;;;;;;9.00;8.13;;;17.40;99.90;;;19.04;100.00;100307.28;5015789;28;20281;-62
2021/09/26 08:09:06;;;;;;;8.93;8.13;;;17.60;99.90;;;19.50;100.00;100312.81;5015408;28;20242;-62
2021/09/26 08:11:34;;;;;;;8.13;7.32;;;18.00;99.90;;;19.73;100.00;100315.81;5015292;28;20294;-62
2021/09/26 08:14:02;;;;;;;8.20;7.50;;;18.20;99.90;;;19.93;100.00;100315.78;5015129;28;20245;-63
2021/09/26 08:16:32;;;;;;;8.00;7.30;;;18.40;99.90;;;20.16;100.00;100319.84;5026188;28;20233;-63
2021/09/26 08:19:00;;;;;;;8.00;7.20;;;18.70;99.90;;;20.50;100.00;100312.59;5034350;28;20198;-63
2021/09/26 08:21:28;;;;;;;8.82;8.02;;;19.00;99.90;;;20.73;100.00;100308.38;5034868;28;20344;-63
2021/09/26 08:23:56;;;;;;;8.07;6.93;;;19.20;99.90;;;20.93;100.00;100314.56;5034952;28;20688;-63
2021/09/26 08:26:24;;;;;;;7.88;7.18;;;19.40;99.90;;;20.94;100.00;100313.44;5034499;28;20283;-62
2021/09/26 08:28:52;;;;;;;8.38;7.25;;;19.50;99.90;;;21.29;97.73;100310.47;5035191;28;20187;-62
2021/09/26 08:31:20;;;;;;;7.72;6.88;;;19.60;99.90;;;21.26;98.70;100307.50;5034630;28;20292;-62
2021/09/26 08:33:50;;;;;;;7.80;6.75;;;19.80;99.90;;;21.40;97.01;100309.31;5028051;28;20201;-62
2021/09/26 08:36:18;;;;;;;7.38;6.68;;;19.90;99.90;;;21.31;97.03;100321.19;5014955;28;20245;-62
2021/09/26 08:38:47;;;;;;;7.60;6.90;;;19.90;99.90;;;21.21;97.78;100316.56;5033525;28;20214;-62
2021/09/26 08:41:17;;;;;;;8.00;6.45;;;20.00;99.90;;;21.43;97.41;100308.72;5034237;28;20571;-62
2021/09/26 08:43:48;;;;;;;8.00;5.82;;;20.10;99.90;;;21.70;96.01;100306.28;5034710;28;20190;-62
2021/09/26 08:46:18;;;;;;;8.07;7.15;;;20.20;99.90;;;22.01;92.16;100301.34;5034608;28;20205;-62
2021/09/26 08:48:46;;;;;;;6.90;6.25;;;20.50;99.90;;;22.35;89.18;100310.28;5034444;28;20226;-62
2021/09/26 08:51:16;;;;;;;6.43;5.78;;;20.70;99.90;;;22.53;88.61;100308.66;5034248;28;20202;-63
2021/09/26 08:53:44;;;;;;;7.63;6.00;;;20.80;99.90;;;22.67;85.90;100315.94;5034639;28;20213;-63
2021/09/26 08:56:12;;;;;;;6.57;5.88;;;21.00;99.90;;;22.46;86.88;100321.97;5033439;28;20201;-63
2021/09/26 08:58:40;;;;;;;7.53;6.50;;;21.00;99.90;;;22.42;86.80;100318.16;5034568;28;20202;-64
2021/09/26 09:01:08;;;;;;;6.47;5.88;;;21.00;99.90;;;22.55;86.75;100314.72;5034366;28;20256;-62
2021/09/26 09:03:37;;;;;;;5.90;5.40;;;21.10;99.90;;;22.48;88.27;100319.72;5034353;28;20225;-63
2021/09/26 09:06:05;;;;;;;6.97;6.32;;;21.10;99.90;;;22.34;88.24;100308.63;5034195;28;20308;-64
2021/09/26 09:08:41;;;;;;;6.18;5.57;;;21.00;99.90;;;22.06;89.95;100311.44;5034261;28;20289;-63
2021/09/26 09:11:10;;;;;;;6.43;5.82;;;20.90;99.90;;;22.06;90.30;100308.69;5034023;28;20209;-62
2021/09/26 09:13:42;;;;;;;8.57;6.57;;;20.80;99.90;;;22.07;90.58;100307.59;5034141;28;20210;-62
2021/09/26 09:16:14;;;;;;;7.05;6.45;;;20.80;99.90;;;21.96;91.14;100297.81;5033992;28;20202;-62
2021/09/26 09:18:46;;;;;;;7.35;6.30;;;20.70;99.90;;;21.84;91.64;100306.44;5034187;28;20188;-63
2021/09/26 09:21:19;;;;;;;6.93;6.10;;;20.60;99.90;;;21.93;91.66;100317.63;5033978;28;20212;-63
2021/09/26 09:23:51;;;;;;;6.57;5.95;;;20.70;99.90;;;21.99;91.61;100317.25;5033754;28;20187;-61
2021/09/26 09:26:33;;;;;;;6.30;5.80;;;20.70;99.90;;;22.09;92.56;100316.34;5033687;28;20384;-62
2021/09/26 09:29:02;;;;;;;6.85;6.15;;;20.80;99.90;;;22.17;91.99;100308.31;5032632;28;20714;-63
2021/09/26 09:31:31;;;;;;;7.00;6.30;;;20.90;99.90;;;22.21;91.94;100320.31;5033097;28;20237;-63
2021/09/26 09:34:04;;;;;;;6.82;6.10;;;20.90;99.90;;;22.50;90.88;100312.81;5033765;28;20201;-62
2021/09/26 09:36:33;;;;;;;8.50;6.50;;;21.00;99.90;;;22.37;91.47;100324.53;5033427;28;20225;-63
2021/09/26 09:39:08;;;;;;;6.53;5.93;;;21.10;99.90;;;22.46;90.88;100313.72;5033476;28;20206;-62
2021/09/26 09:41:40;;;;;;;6.57;5.97;;;21.10;99.90;;;22.60;91.73;100307.22;5032907;28;20210;-62
2021/09/26 09:44:12;;;;;;;7.05;6.40;;;21.20;99.90;;;22.71;89.25;100305.16;5033523;28;20190;-62
2021/09/26 09:46:45;;;;;;;8.65;6.05;;;21.30;99.90;;;22.84;89.34;100301.69;5033457;28;20206;-63
2021/09/26 09:49:17;;;;;;;7.70;6.10;;;21.40;99.90;;;22.80;89.24;100300.63;5033155;28;20234;-62
2021/09/26 09:51:50;;;;;;;6.40;5.70;;;21.40;99.90;;;22.73;88.68;100301.00;5033098;28;20706;-62
2021/09/26 09:54:30;;;;;;;6.40;5.80;;;21.50;99.90;;;22.78;89.67;100292.69;5033078;28;20599;-64
2021/09/26 09:57:11;;;;;;;6.88;6.28;;;21.50;99.90;;;22.83;89.93;100291.81;5033391;28;20599;-63
2021/09/26 09:59:39;;;;;;;6.30;5.72;;;21.50;99.90;;;22.87;90.35;100285.41;5033413;28;20196;-62
2021/09/26 10:02:08;;;;;;;7.72;6.30;;;21.60;99.90;;;23.05;89.24;100286.53;5032975;28;20236;-63
2021/09/26 10:04:39;;;;;;;6.20;5.70;;;21.70;99.90;;;23.08;89.19;100291.44;5032769;28;20249;-63
2021/09/26 10:07:21;;;;;;;6.75;5.68;;;21.70;99.90;;;23.18;89.57;100280.28;5033182;28;20232;-62
2021/09/26 10:09:53;;;;;;;6.47;5.88;;;21.80;99.90;;;23.52;86.61;100280.81;5032874;28;20189;-63